createdAt,value
2019-02-10T00:01:30.918Z,6.67
2019-02-10T00:05:45.699Z,6.60
2019-02-10T00:10:02.472Z,8.07
2019-02-10T00:14:16.913Z,7.00
2019-02-10T00:18:33.570Z,7.30
2019-02-10T00:22:47.769Z,5.97
2019-02-10T00:27:02.383Z,7.60
2019-02-10T00:31:16.729Z,6.40
2019-02-10T00:35:31.317Z,9.90
2019-02-10T00:39:45.862Z,7.80
2019-02-10T00:44:08.579Z,8.67
2019-02-10T00:48:29.442Z,6.77
2019-02-10T00:52:50.296Z,6.97
2019-02-10T00:57:04.393Z,5.83
2019-02-10T01:01:05.479Z,9.77
2019-02-10T01:05:06.873Z,6.40
2019-02-10T01:09:29.719Z,7.83
2019-02-10T01:13:50.515Z,5.53
2019-02-10T01:18:11.266Z,6.00
2019-02-10T01:22:32.096Z,5.13
2019-02-10T01:26:52.930Z,8.80
2019-02-10T01:31:13.777Z,4.67
2019-02-10T01:35:34.616Z,6.37
2019-02-10T01:40:17.113Z,5.03
2019-02-10T01:44:37.964Z,5.73
2019-02-10T01:48:58.927Z,7.67
2019-02-10T01:53:19.766Z,5.03
2019-02-10T01:57:20.754Z,5.40
2019-02-10T02:01:41.588Z,5.23
2019-02-10T02:06:02.426Z,5.63
2019-02-10T02:10:23.167Z,6.50
2019-02-10T02:14:43.907Z,5.23
2019-02-10T02:23:33.631Z,5.70
2019-02-10T02:27:54.456Z,6.63
2019-02-10T02:32:15.208Z,5.47
2019-02-10T02:41:04.896Z,7.23
2019-02-10T02:45:47.412Z,5.40
2019-02-10T02:50:09.138Z,4.73
2019-02-10T02:54:23.102Z,5.10
2019-02-10T02:58:37.551Z,4.87
2019-02-10T03:02:52.197Z,5.57
2019-02-10T03:07:06.616Z,5.13
2019-02-10T03:11:21.311Z,4.50
2019-02-10T03:15:36.125Z,5.03
2019-02-10T03:19:50.566Z,4.80
2019-02-10T03:24:05.230Z,4.97
2019-02-10T03:28:06.288Z,6.57
2019-02-10T03:32:27.043Z,6.27
2019-02-10T03:36:47.843Z,5.33
2019-02-10T03:41:08.652Z,3.80
2019-02-10T03:45:29.502Z,9.23
2019-02-10T03:49:50.357Z,5.33
2019-02-10T03:54:11.196Z,8.13
2019-02-10T03:58:25.821Z,6.47
2019-02-10T04:02:26.708Z,4.77
2019-02-10T04:06:47.562Z,5.70
2019-02-10T04:11:08.523Z,6.10
2019-02-10T04:15:29.481Z,7.13
2019-02-10T04:19:30.461Z,7.30
2019-02-10T04:23:51.163Z,7.93
2019-02-10T04:28:11.887Z,9.73
2019-02-10T04:32:32.640Z,11.37
2019-02-10T04:36:53.482Z,11.20
2019-02-10T04:41:14.223Z,10.80
2019-02-10T04:45:34.946Z,11.90
2019-02-10T04:49:35.901Z,12.40
2019-02-10T04:53:56.736Z,11.47
2019-02-10T04:58:11.231Z,12.47
2019-02-10T05:02:25.871Z,11.80
2019-02-10T05:06:39.758Z,13.60
2019-02-10T05:10:53.517Z,14.43
2019-02-10T05:15:08.063Z,15.13
2019-02-10T05:19:22.501Z,13.73
2019-02-10T05:23:37.223Z,15.10
2019-02-10T05:27:51.955Z,13.70
2019-02-10T05:32:06.538Z,13.67
2019-02-10T05:36:07.543Z,14.90
2019-02-10T05:40:08.522Z,14.20
2019-02-10T05:44:29.324Z,15.10
2019-02-10T05:48:50.169Z,14.27
2019-02-10T05:53:10.928Z,14.90
2019-02-10T05:57:25.070Z,14.40
2019-02-10T06:02:25.574Z,13.10
2019-02-10T06:06:46.416Z,12.83
2019-02-10T06:10:47.296Z,14.57
2019-02-10T06:15:08.300Z,15.07
2019-02-10T06:19:09.188Z,13.50
2019-02-10T06:23:10.041Z,12.80
2019-02-10T06:27:10.930Z,14.50
2019-02-10T06:31:31.705Z,12.97
2019-02-10T06:35:52.462Z,13.47
2019-02-10T06:40:13.187Z,12.10
2019-02-10T06:44:33.927Z,10.70
2019-02-10T06:48:54.761Z,9.87
2019-02-10T06:53:15.587Z,9.07
2019-02-10T06:57:29.501Z,10.80
2019-02-10T07:01:46.156Z,8.77
2019-02-10T07:06:00.681Z,8.43
2019-02-10T07:10:15.389Z,8.93
2019-02-10T07:14:29.877Z,7.87
2019-02-10T07:18:44.547Z,7.90
2019-02-10T07:22:59.265Z,8.07
2019-02-10T07:27:14.356Z,6.00
2019-02-10T07:31:28.355Z,6.30
2019-02-10T07:35:45.507Z,5.70
2019-02-10T07:39:59.522Z,4.80
2019-02-10T07:44:13.859Z,5.20
2019-02-10T07:48:36.562Z,5.13
2019-02-10T07:53:19.110Z,4.57
2019-02-10T07:57:33.584Z,4.87
2019-02-10T08:01:48.212Z,4.83
2019-02-10T08:06:02.756Z,4.93
2019-02-10T08:10:17.274Z,3.90
2019-02-10T08:14:31.630Z,4.37
2019-02-10T08:18:46.310Z,5.10
2019-02-10T08:23:00.776Z,4.53
2019-02-10T08:27:15.548Z,4.90
2019-02-10T08:31:30.146Z,3.23
2019-02-10T08:35:44.614Z,3.70
2019-02-10T08:39:59.349Z,3.40
2019-02-10T08:44:14.442Z,3.20
2019-02-10T08:48:28.959Z,4.40
2019-02-10T08:52:51.542Z,3.90
2019-02-10T08:56:59.883Z,4.80
2019-02-10T09:01:14.406Z,4.40
2019-02-10T09:05:29.274Z,4.03
2019-02-10T09:09:43.063Z,4.07
2019-02-10T09:18:11.046Z,4.23
2019-02-10T09:22:31.805Z,4.33
2019-02-10T09:26:52.579Z,4.70
2019-02-10T09:31:13.406Z,3.43
2019-02-10T09:35:34.238Z,7.20
2019-02-10T09:39:54.983Z,3.67
2019-02-10T09:44:15.730Z,3.83
2019-02-10T09:48:36.573Z,3.43
2019-02-10T09:52:57.351Z,4.30
2019-02-10T09:57:11.995Z,3.83
2019-02-10T10:01:14.726Z,5.73
2019-02-10T10:05:35.986Z,4.70
2019-02-10T10:09:56.908Z,4.37
2019-02-10T10:14:17.679Z,4.47
2019-02-10T10:18:38.545Z,3.50
2019-02-10T10:22:59.286Z,4.20
2019-02-10T10:27:20.193Z,4.23
2019-02-10T10:31:41.079Z,4.70
2019-02-10T10:36:02.023Z,5.40
2019-02-10T10:40:23.202Z,4.17
2019-02-10T10:44:43.976Z,4.30
2019-02-10T10:49:04.834Z,4.30
2019-02-10T10:53:25.584Z,6.90
2019-02-10T10:57:40.302Z,4.57
2019-02-10T11:01:41.380Z,4.93
2019-02-10T11:06:02.453Z,4.60
2019-02-10T11:10:23.405Z,4.30
2019-02-10T11:14:44.185Z,4.10
2019-02-10T11:18:45.065Z,4.23
2019-02-10T11:23:05.829Z,3.20
2019-02-10T11:27:26.557Z,3.37
2019-02-10T11:31:27.560Z,2.83
2019-02-10T11:35:48.469Z,2.53
2019-02-10T11:40:12.906Z,3.37
2019-02-10T11:44:33.768Z,3.97
2019-02-10T11:48:54.699Z,3.50
2019-02-10T11:53:15.513Z,2.87
2019-02-10T11:57:16.427Z,2.30
2019-02-10T12:01:37.260Z,2.70
2019-02-10T12:05:38.193Z,2.30
2019-02-10T12:09:39.328Z,2.00
2019-02-10T12:14:00.195Z,2.27
2019-02-10T12:18:20.964Z,2.80
2019-02-10T12:22:49.691Z,2.90
2019-02-10T12:27:04.468Z,1.90
2019-02-10T12:31:25.890Z,1.87
2019-02-10T12:35:46.728Z,1.63
2019-02-10T12:39:47.699Z,1.97
2019-02-10T12:43:48.674Z,1.90
2019-02-10T12:52:38.909Z,1.90
2019-02-10T12:56:54.811Z,2.13
2019-02-10T13:01:08.664Z,1.40
2019-02-10T13:05:26.259Z,1.57
2019-02-10T13:09:41.179Z,1.40
2019-02-10T13:13:55.738Z,1.37
2019-02-10T13:18:12.562Z,1.13
2019-02-10T13:22:26.914Z,1.17
2019-02-10T13:31:16.713Z,1.17
2019-02-10T13:35:39.783Z,0.93
2019-02-10T13:40:00.511Z,1.00
2019-02-10T13:44:21.269Z,1.20
2019-02-10T13:48:42.103Z,1.27
2019-02-10T13:53:02.975Z,0.87
2019-02-10T13:57:18.922Z,0.77
2019-02-10T14:01:33.177Z,0.60
2019-02-10T14:05:47.606Z,0.80
2019-02-10T14:10:02.372Z,0.90
2019-02-10T14:14:16.845Z,0.80
2019-02-10T14:18:31.632Z,0.87
2019-02-10T14:22:45.552Z,0.80
2019-02-10T14:27:05.901Z,0.80
2019-02-10T14:31:20.081Z,0.83
2019-02-10T14:35:34.562Z,0.77
2019-02-10T14:39:50.040Z,2.40
2019-02-10T14:44:04.828Z,0.70
2019-02-10T14:48:06.009Z,0.70
2019-02-10T14:52:26.877Z,0.80
2019-02-10T14:56:44.007Z,0.60
2019-02-10T15:00:58.162Z,0.50
2019-02-10T15:05:12.802Z,0.70
2019-02-10T15:09:27.386Z,0.40
2019-02-10T15:13:42.208Z,0.43
2019-02-10T15:17:56.213Z,0.50
2019-02-10T15:22:10.466Z,0.67
2019-02-10T15:26:25.007Z,0.50
2019-02-10T15:30:38.825Z,0.50
2019-02-10T15:34:53.566Z,0.30
2019-02-10T15:39:10.284Z,0.50
2019-02-10T15:43:25.116Z,0.50
2019-02-10T15:47:39.781Z,1.13
2019-02-10T15:51:54.435Z,0.80
2019-02-10T15:56:08.940Z,0.70
2019-02-10T16:00:23.588Z,0.40
2019-02-10T16:04:38.071Z,0.53
2019-02-10T16:08:52.896Z,0.40
2019-02-10T16:13:07.855Z,0.50
2019-02-10T16:17:08.750Z,0.50
2019-02-10T16:21:29.506Z,0.53
2019-02-10T16:25:50.235Z,1.33
2019-02-10T16:30:12.420Z,0.30
